AEJ weather

Central Colorado Regional Airport
Buena Vista, Colorado, United States

Public forecast

Using degrees Fahrenheit for public forecast. Weather courtesy of forecast.io.

METAR (pilot weather report)

Retrieved 2019/08/18 00:35 UTC (0 seconds ago):

KAEJ 180035Z AUTO 25005KT 10SM CLR 25/M08 A3012 RMK AO2 T02501077

TAF (pilot weather forecast)

Forecast is more than 12 hours old.

Closest forecast is Gunnison Crested Butte Regional Airport, 41.6 nm (77.1 km) WSW. Retrieved 2019/08/17 00:36 UTC (24 hours ago):

TAF KGUC 172333Z 1800/1824 26012G25KT P6SM FEW120 FEW250 FM180200 VRB05KT P6SM SKC FM181800 25008KT P6SM SKC